createdAt,value
2018-06-09T00:00:00.000Z,20.8
2018-06-09T00:05:00.000Z,20.6
2018-06-09T00:10:00.000Z,20.4
2018-06-09T00:15:00.000Z,20.3
2018-06-09T00:20:00.000Z,20.2
2018-06-09T00:25:00.000Z,20.1
2018-06-09T00:30:00.000Z,20.0
2018-06-09T00:35:00.000Z,19.9
2018-06-09T00:40:00.000Z,19.8
2018-06-09T00:45:00.000Z,19.7
2018-06-09T00:50:00.000Z,19.7
2018-06-09T00:55:00.000Z,19.6
2018-06-09T01:00:00.000Z,19.6
2018-06-09T01:05:00.000Z,19.5
2018-06-09T01:10:00.000Z,19.4
2018-06-09T01:15:00.000Z,19.4
2018-06-09T01:20:00.000Z,19.4
2018-06-09T01:25:00.000Z,19.4
2018-06-09T01:30:00.000Z,19.5
2018-06-09T01:35:00.000Z,19.5
2018-06-09T01:40:00.000Z,19.5
2018-06-09T01:45:00.000Z,19.5
2018-06-09T01:51:00.000Z,19.5
2018-06-09T01:56:00.000Z,19.5
2018-06-09T02:01:00.000Z,19.5
2018-06-09T02:06:00.000Z,19.6
2018-06-09T02:11:00.000Z,19.6
2018-06-09T02:16:00.000Z,19.7
2018-06-09T02:21:00.000Z,19.7
2018-06-09T02:26:00.000Z,19.8
2018-06-09T02:31:00.000Z,19.8
2018-06-09T02:36:00.000Z,19.8
2018-06-09T02:41:00.000Z,19.9
2018-06-09T02:46:00.000Z,19.9
2018-06-09T02:51:00.000Z,20.0
2018-06-09T02:56:00.000Z,20.0
2018-06-09T03:01:00.000Z,20.0
2018-06-09T03:06:00.000Z,19.9
2018-06-09T03:11:00.000Z,19.8
2018-06-09T03:16:00.000Z,19.6
2018-06-09T03:21:00.000Z,19.3
2018-06-09T03:26:00.000Z,19.1
2018-06-09T03:31:00.000Z,18.9
2018-06-09T03:36:00.000Z,18.8
2018-06-09T03:41:00.000Z,18.8
2018-06-09T03:46:00.000Z,18.8
2018-06-09T03:51:00.000Z,18.8
2018-06-09T03:56:00.000Z,18.9
2018-06-09T04:01:00.000Z,18.8
2018-06-09T04:06:00.000Z,18.9
2018-06-09T04:11:00.000Z,18.9
2018-06-09T04:16:00.000Z,19.0
2018-06-09T04:22:00.000Z,19.0
2018-06-09T04:27:00.000Z,19.1
2018-06-09T04:32:00.000Z,19.1
2018-06-09T04:37:00.000Z,19.1
2018-06-09T04:42:00.000Z,19.2
2018-06-09T04:47:00.000Z,19.3
2018-06-09T04:52:00.000Z,19.4
2018-06-09T04:57:00.000Z,19.5
2018-06-09T05:02:00.000Z,19.6
2018-06-09T05:07:00.000Z,19.5
2018-06-09T05:12:00.000Z,19.5
2018-06-09T05:17:00.000Z,19.6
2018-06-09T05:22:00.000Z,19.7
2018-06-09T05:27:00.000Z,19.9
2018-06-09T05:32:00.000Z,20.1
2018-06-09T05:37:00.000Z,20.3
2018-06-09T05:42:00.000Z,20.4
2018-06-09T05:47:00.000Z,20.5
2018-06-09T05:52:00.000Z,20.7
2018-06-09T05:57:00.000Z,20.8
2018-06-09T06:02:00.000Z,20.9
2018-06-09T06:07:00.000Z,20.9
2018-06-09T06:12:00.000Z,20.9
2018-06-09T06:17:00.000Z,20.9
2018-06-09T06:22:00.000Z,20.9
2018-06-09T06:27:00.000Z,20.9
2018-06-09T06:32:00.000Z,20.9
2018-06-09T06:37:00.000Z,20.9
2018-06-09T06:42:00.000Z,21.1
2018-06-09T06:48:00.000Z,21.2
2018-06-09T06:53:00.000Z,21.4
2018-06-09T06:58:00.000Z,21.6
2018-06-09T07:03:00.000Z,21.8
2018-06-09T07:08:00.000Z,21.8
2018-06-09T07:13:00.000Z,21.8
2018-06-09T07:18:00.000Z,21.9
2018-06-09T07:23:00.000Z,21.9
2018-06-09T07:28:00.000Z,22.2
2018-06-09T07:33:00.000Z,23.1
2018-06-09T07:38:00.000Z,23.8
2018-06-09T07:43:00.000Z,24.4
2018-06-09T07:48:00.000Z,25.2
2018-06-09T07:53:00.000Z,26.1
2018-06-09T07:58:00.000Z,26.2
2018-06-09T08:03:00.000Z,26.2
2018-06-09T08:08:00.000Z,26.6
2018-06-09T08:13:00.000Z,27.1
2018-06-09T08:18:00.000Z,27.4
2018-06-09T08:23:00.000Z,28.1
2018-06-09T08:28:00.000Z,28.5
2018-06-09T08:33:00.000Z,28.5
2018-06-09T08:38:00.000Z,29.0
2018-06-09T08:43:00.000Z,29.2
2018-06-09T08:48:00.000Z,29.4
2018-06-09T08:53:00.000Z,29.8
2018-06-09T08:58:00.000Z,30.1
2018-06-09T09:03:00.000Z,30.6
2018-06-09T09:08:00.000Z,31.0
2018-06-09T09:13:00.000Z,30.9
2018-06-09T09:18:00.000Z,30.3
2018-06-09T09:23:00.000Z,30.1
2018-06-09T09:28:00.000Z,30.1
2018-06-09T09:33:00.000Z,29.9
2018-06-09T09:38:00.000Z,29.8
2018-06-09T09:43:00.000Z,29.7
2018-06-09T09:48:00.000Z,29.7
2018-06-09T09:53:00.000Z,29.5
2018-06-09T09:58:00.000Z,29.0
2018-06-09T10:03:00.000Z,28.6
2018-06-09T10:08:00.000Z,28.2
2018-06-09T10:13:00.000Z,27.8
2018-06-09T10:19:00.000Z,27.2
2018-06-09T10:24:00.000Z,26.8
2018-06-09T10:29:00.000Z,26.6
2018-06-09T10:34:00.000Z,26.3
2018-06-09T10:39:00.000Z,26.2
2018-06-09T10:44:00.000Z,26.0
2018-06-09T10:49:00.000Z,25.9
2018-06-09T10:54:00.000Z,25.6
2018-06-09T10:59:00.000Z,25.5
2018-06-09T11:04:00.000Z,25.4
2018-06-09T11:09:00.000Z,25.2
2018-06-09T11:14:00.000Z,25.2
2018-06-09T11:19:00.000Z,25.2
2018-06-09T11:24:00.000Z,25.3
2018-06-09T11:29:00.000Z,25.5
2018-06-09T11:34:00.000Z,25.6
2018-06-09T11:39:00.000Z,25.6
2018-06-09T11:44:00.000Z,25.6
2018-06-09T11:49:00.000Z,25.7
2018-06-09T11:54:00.000Z,25.7
2018-06-09T11:59:00.000Z,25.7
2018-06-09T12:04:00.000Z,25.6
2018-06-09T12:09:00.000Z,25.5
2018-06-09T12:14:00.000Z,25.6
2018-06-09T12:19:00.000Z,25.6
2018-06-09T12:24:00.000Z,25.7
2018-06-09T12:29:00.000Z,25.8
2018-06-09T12:34:00.000Z,25.9
2018-06-09T12:39:00.000Z,26.0
2018-06-09T12:44:00.000Z,26.0
2018-06-09T12:49:00.000Z,26.0
2018-06-09T12:54:00.000Z,26.0
2018-06-09T12:59:00.000Z,26.4
2018-06-09T13:05:00.000Z,26.6
2018-06-09T13:10:00.000Z,26.8
2018-06-09T13:15:00.000Z,26.8
2018-06-09T13:20:00.000Z,26.9
2018-06-09T13:25:00.000Z,27.0
2018-06-09T13:30:00.000Z,27.0
2018-06-09T13:35:00.000Z,27.1
2018-06-09T13:40:00.000Z,27.3
2018-06-09T13:45:00.000Z,27.3
2018-06-09T13:50:00.000Z,27.3
2018-06-09T13:55:00.000Z,27.5
2018-06-09T14:00:00.000Z,27.7
2018-06-09T14:05:00.000Z,27.7
2018-06-09T14:10:00.000Z,27.9
2018-06-09T14:15:00.000Z,27.8
2018-06-09T14:20:00.000Z,27.8
2018-06-09T14:25:00.000Z,27.9
2018-06-09T14:30:00.000Z,28.1
2018-06-09T14:35:00.000Z,28.1
2018-06-09T14:40:00.000Z,28.0
2018-06-09T14:45:00.000Z,28.1
2018-06-09T14:50:00.000Z,28.1
2018-06-09T14:55:00.000Z,28.2
2018-06-09T15:00:00.000Z,28.3
2018-06-09T15:05:00.000Z,28.5
2018-06-09T15:10:00.000Z,28.7
2018-06-09T15:15:00.000Z,28.7
2018-06-09T15:20:00.000Z,28.5
2018-06-09T15:25:00.000Z,28.3
2018-06-09T15:30:00.000Z,28.2
2018-06-09T15:35:00.000Z,28.1
2018-06-09T15:40:00.000Z,28.0
2018-06-09T15:45:00.000Z,28.1
2018-06-09T15:50:00.000Z,28.1
2018-06-09T15:55:00.000Z,28.1
2018-06-09T16:00:00.000Z,28.2
2018-06-09T16:05:00.000Z,28.2
2018-06-09T16:10:00.000Z,28.3
2018-06-09T16:15:00.000Z,28.3
2018-06-09T16:20:00.000Z,28.1
2018-06-09T16:25:00.000Z,27.9
2018-06-09T16:30:00.000Z,27.9
2018-06-09T16:35:00.000Z,27.9
2018-06-09T16:40:00.000Z,27.8
2018-06-09T16:45:00.000Z,27.7
2018-06-09T16:50:00.000Z,27.6
2018-06-09T16:55:00.000Z,27.5
2018-06-09T17:00:00.000Z,27.4
2018-06-09T17:05:00.000Z,27.3
2018-06-09T17:10:00.000Z,27.1
2018-06-09T17:15:00.000Z,27.0
2018-06-09T17:20:00.000Z,26.8
2018-06-09T17:25:00.000Z,26.6
2018-06-09T17:30:00.000Z,26.4
2018-06-09T17:35:00.000Z,26.2
2018-06-09T17:40:00.000Z,26.1
2018-06-09T17:45:00.000Z,25.9
2018-06-09T17:50:00.000Z,25.7
2018-06-09T17:55:00.000Z,25.5
2018-06-09T18:00:00.000Z,25.4
2018-06-09T18:05:00.000Z,25.2
2018-06-09T18:10:00.000Z,25.1
2018-06-09T18:15:00.000Z,25.0
2018-06-09T18:20:00.000Z,24.9
2018-06-09T18:25:00.000Z,24.8
2018-06-09T18:30:00.000Z,24.7
2018-06-09T18:35:00.000Z,24.6
2018-06-09T18:40:00.000Z,24.5
2018-06-09T18:45:00.000Z,24.3
2018-06-09T18:50:00.000Z,24.2
2018-06-09T18:56:00.000Z,24.1
2018-06-09T19:01:00.000Z,24.0
2018-06-09T19:06:00.000Z,23.9
2018-06-09T19:11:00.000Z,23.7
2018-06-09T19:16:00.000Z,23.6
2018-06-09T19:21:00.000Z,23.5
2018-06-09T19:26:00.000Z,23.4
2018-06-09T19:31:00.000Z,23.3
2018-06-09T19:36:00.000Z,23.2
2018-06-09T19:41:00.000Z,23.1
2018-06-09T19:46:00.000Z,23.0
2018-06-09T19:51:00.000Z,23.0
2018-06-09T19:56:00.000Z,23.0
2018-06-09T20:01:00.000Z,22.9
2018-06-09T20:06:00.000Z,22.9
2018-06-09T20:11:00.000Z,22.8
2018-06-09T20:16:00.000Z,22.8
2018-06-09T20:21:00.000Z,22.8
2018-06-09T20:26:00.000Z,22.7
2018-06-09T20:31:00.000Z,22.7
2018-06-09T20:36:00.000Z,22.6
2018-06-09T20:41:00.000Z,22.6
2018-06-09T20:46:00.000Z,22.5
2018-06-09T20:51:00.000Z,22.4
2018-06-09T20:56:00.000Z,22.4
2018-06-09T21:01:00.000Z,22.4
2018-06-09T21:06:00.000Z,22.3
2018-06-09T21:11:00.000Z,22.2
2018-06-09T21:16:00.000Z,22.2
2018-06-09T21:21:00.000Z,22.1
2018-06-09T21:26:00.000Z,22.1
2018-06-09T21:31:00.000Z,22.1
2018-06-09T21:36:00.000Z,22.0
2018-06-09T21:41:00.000Z,22.0
2018-06-09T21:46:00.000Z,22.0
2018-06-09T21:51:00.000Z,22.0
2018-06-09T21:56:00.000Z,22.0
2018-06-09T22:01:00.000Z,22.0
2018-06-09T22:06:00.000Z,22.0
2018-06-09T22:11:00.000Z,22.0
2018-06-09T22:16:00.000Z,22.0
2018-06-09T22:21:00.000Z,22.0
2018-06-09T22:26:00.000Z,22.0
2018-06-09T22:31:00.000Z,22.0
2018-06-09T22:36:00.000Z,22.0
2018-06-09T22:41:00.000Z,22.0
2018-06-09T22:46:00.000Z,22.0
2018-06-09T22:51:00.000Z,22.0
2018-06-09T22:56:00.000Z,22.0
2018-06-09T23:01:00.000Z,22.0
2018-06-09T23:06:00.000Z,21.9
2018-06-09T23:11:00.000Z,21.9
2018-06-09T23:16:00.000Z,21.9
2018-06-09T23:21:00.000Z,21.9
2018-06-09T23:26:00.000Z,21.8
2018-06-09T23:31:00.000Z,21.8
2018-06-09T23:36:00.000Z,21.8
2018-06-09T23:41:00.000Z,21.8
2018-06-09T23:46:00.000Z,21.8
2018-06-09T23:51:00.000Z,21.8
2018-06-09T23:56:00.000Z,21.8
